Songer, Illinois
Current Conditions -  °F | °C
As of 2:15 PM on Sunday 21 Dec 2014 (Local Time) from KFOA Reporting Station
Clear Clear  
Wind Chill: 36°   Ceiling: Unl
Heat Index: 41°   Visibility: 10mi
Dew Point: 30°   Wind: 7mph
Humidity: 64%   Direction: 140°SE
Pressure: 30.12"   Gusts: NA
Location:  38.6949°N, 88.6407°W
Report Text: KFOA 212015Z AUTO 14006KT 10SM CLR 05/M01 A3012 RMK AO2 T00501012
Loading
Personal Weather Stations






























Interactive Weather Map New forecast layout! Learn more

10-Day Weather Forecast

Advertisements
Track Severe Weather on mobile